createdAt,value
2022-11-05T00:04:10.687Z,100544.75
2022-11-05T00:08:31.663Z,100547.84
2022-11-05T00:12:52.663Z,100553.88
2022-11-05T00:16:57.533Z,100563.59
2022-11-05T00:21:00.870Z,100552.72
2022-11-05T00:25:16.807Z,100557.16
2022-11-05T00:29:20.258Z,100556.97
2022-11-05T00:33:24.973Z,100556.22
2022-11-05T00:37:28.766Z,100560.06
2022-11-05T00:41:32.292Z,100560.34
2022-11-05T00:45:35.655Z,100564.75
2022-11-05T00:49:39.440Z,100565.78
2022-11-05T00:53:42.793Z,100564.16
2022-11-05T00:57:46.151Z,100577.19
2022-11-05T01:01:49.819Z,100580.84
2022-11-05T01:05:56.293Z,100580.47
2022-11-05T01:09:59.635Z,100578.19
2022-11-05T01:14:05.215Z,100585.59
2022-11-05T01:18:09.234Z,100593.69
2022-11-05T01:22:14.304Z,100590.22
2022-11-05T01:26:17.657Z,100598.16
2022-11-05T01:30:21.473Z,100609.84
2022-11-05T01:34:24.759Z,100614.44
2022-11-05T01:38:29.528Z,100616.84
2022-11-05T01:42:34.347Z,100609.50
2022-11-05T01:46:42.321Z,100608.31
2022-11-05T01:50:50.819Z,100623.53
2022-11-05T01:54:56.093Z,100626.81
2022-11-05T01:59:02.991Z,100617.31
2022-11-05T02:03:06.507Z,100626.47
2022-11-05T02:07:11.836Z,100642.69
2022-11-05T02:11:19.497Z,100640.06
2022-11-05T02:15:29.753Z,100649.84
2022-11-05T02:19:56.613Z,100649.41
2022-11-05T02:24:24.646Z,100645.03
2022-11-05T02:29:04.396Z,100653.38
2022-11-05T02:33:24.018Z,100642.31
2022-11-05T02:37:39.581Z,100649.31
2022-11-05T02:41:52.671Z,100648.22
2022-11-05T02:46:04.730Z,100643.22
2022-11-05T02:50:20.196Z,100632.72
2022-11-05T02:54:28.251Z,100631.56
2022-11-05T02:58:31.809Z,100630.38
2022-11-05T03:02:35.504Z,100632.31
2022-11-05T03:07:05.567Z,100630.81
2022-11-05T03:11:15.634Z,100629.19
2022-11-05T03:15:35.929Z,100630.88
2022-11-05T03:19:47.818Z,100637.56
2022-11-05T03:23:57.636Z,100638.66
2022-11-05T03:28:07.397Z,100627.84
2022-11-05T03:32:13.171Z,100639.75
2022-11-05T03:36:22.992Z,100653.75
2022-11-05T03:40:29.569Z,100654.31
2022-11-05T03:44:36.786Z,100653.81
2022-11-05T03:48:44.462Z,100660.28
2022-11-05T03:52:53.307Z,100661.59
2022-11-05T03:57:04.972Z,100668.56
2022-11-05T04:01:08.555Z,100663.59
2022-11-05T04:05:12.762Z,100667.91
2022-11-05T04:09:33.399Z,100668.16
2022-11-05T04:13:38.147Z,100676.97
2022-11-05T04:17:41.515Z,100672.91
2022-11-05T04:22:02.244Z,100663.81
2022-11-05T04:26:05.771Z,100677.03
2022-11-05T04:30:20.608Z,100681.38
2022-11-05T04:34:24.661Z,100684.97
2022-11-05T04:38:28.068Z,100682.56
2022-11-05T04:42:31.414Z,100697.06
2022-11-05T04:46:36.121Z,100695.00
2022-11-05T04:50:39.596Z,100691.63
2022-11-05T04:54:42.964Z,100695.47
2022-11-05T04:58:46.652Z,100707.56
2022-11-05T05:02:51.709Z,100709.38
2022-11-05T05:06:54.991Z,100701.41
2022-11-05T05:11:02.774Z,100697.06
2022-11-05T05:15:07.260Z,100699.38
2022-11-05T05:19:12.000Z,100704.78
2022-11-05T05:23:15.376Z,100706.09
2022-11-05T05:27:18.756Z,100708.22
2022-11-05T05:31:22.682Z,100706.34
2022-11-05T05:35:27.396Z,100708.28
2022-11-05T05:39:30.757Z,100699.94
2022-11-05T05:43:35.028Z,100703.50
2022-11-05T05:47:38.778Z,100702.19
2022-11-05T05:51:43.628Z,100708.63
2022-11-05T05:55:47.039Z,100707.00
2022-11-05T05:59:50.439Z,100708.75
2022-11-05T06:03:53.755Z,100720.22
2022-11-05T06:07:59.284Z,100722.28
2022-11-05T06:12:02.793Z,100725.75
2022-11-05T06:16:08.167Z,100730.16
2022-11-05T06:20:12.789Z,100727.28
2022-11-05T06:24:17.524Z,100741.34
2022-11-05T06:28:20.914Z,100737.66
2022-11-05T06:32:24.390Z,100751.19
2022-11-05T06:36:27.736Z,100755.94
2022-11-05T06:40:32.408Z,100755.13
2022-11-05T06:44:35.741Z,100764.09
2022-11-05T06:48:39.510Z,100765.66
2022-11-05T06:52:42.789Z,100767.00
2022-11-05T06:56:47.545Z,100761.56
2022-11-05T07:00:51.159Z,100769.56
2022-11-05T07:04:54.559Z,100781.91
2022-11-05T07:08:57.967Z,100787.19
2022-11-05T07:13:07.783Z,100795.94
2022-11-05T07:17:12.136Z,100804.94
2022-11-05T07:21:15.468Z,100799.69
2022-11-05T07:25:19.172Z,100795.56
2022-11-05T07:29:23.847Z,100790.72
2022-11-05T07:33:27.809Z,100807.63
2022-11-05T07:37:33.452Z,100810.25
2022-11-05T07:41:37.006Z,100804.91
2022-11-05T07:45:41.809Z,100809.13
2022-11-05T07:49:45.162Z,100820.75
2022-11-05T07:53:48.692Z,100816.44
2022-11-05T07:57:52.455Z,100810.91
2022-11-05T08:01:57.535Z,100806.03
2022-11-05T08:06:01.138Z,100791.69
2022-11-05T08:10:05.083Z,100784.50
2022-11-05T08:14:08.670Z,100769.88
2022-11-05T08:18:15.774Z,100767.16
2022-11-05T08:22:19.221Z,100775.84
2022-11-05T08:26:22.706Z,100761.56
2022-11-05T08:30:25.912Z,100758.47
2022-11-05T08:34:30.944Z,100757.41
2022-11-05T08:38:34.106Z,100757.59
2022-11-05T08:42:37.229Z,100761.19
2022-11-05T08:46:41.744Z,100756.75
2022-11-05T08:50:47.292Z,100764.41
2022-11-05T08:54:50.394Z,100763.16
2022-11-05T08:58:54.004Z,100771.09
2022-11-05T09:02:59.757Z,100764.78
2022-11-05T09:07:04.245Z,100754.84
2022-11-05T09:11:07.378Z,100756.81
2022-11-05T09:15:12.328Z,100765.63
2022-11-05T09:19:15.476Z,100777.06
2022-11-05T09:23:20.249Z,100784.56
2022-11-05T09:27:23.499Z,100781.59
2022-11-05T09:31:26.874Z,100778.59
2022-11-05T09:35:30.000Z,100776.69
2022-11-05T09:39:34.489Z,100774.06
2022-11-05T09:43:39.491Z,100782.06
2022-11-05T09:47:45.376Z,100776.28
2022-11-05T09:51:48.481Z,100776.25
2022-11-05T09:55:54.701Z,100771.13
2022-11-05T09:59:59.726Z,100788.59
2022-11-05T10:04:07.419Z,100790.44
2022-11-05T10:08:14.949Z,100798.53
2022-11-05T10:12:22.775Z,100794.09
2022-11-05T10:16:27.771Z,100794.44
2022-11-05T10:20:33.654Z,100804.84
2022-11-05T10:24:37.072Z,100790.97
2022-11-05T10:28:41.593Z,100792.22
2022-11-05T10:32:46.013Z,100788.78
2022-11-05T10:36:49.494Z,100791.41
2022-11-05T10:40:56.642Z,100800.91
2022-11-05T10:45:04.803Z,100807.72
2022-11-05T10:49:18.756Z,100811.09
2022-11-05T10:53:23.663Z,100806.94
2022-11-05T10:57:31.887Z,100811.38
2022-11-05T11:01:36.708Z,100810.78
2022-11-05T11:05:41.296Z,100802.22
2022-11-05T11:09:48.295Z,100804.09
2022-11-05T11:13:52.388Z,100822.66
2022-11-05T11:17:57.774Z,100817.34
2022-11-05T11:22:16.021Z,100813.78
2022-11-05T11:26:19.229Z,100814.09
2022-11-05T11:30:22.960Z,100819.63
2022-11-05T11:34:31.006Z,100810.34
2022-11-05T11:38:35.863Z,100822.13
2022-11-05T11:42:41.386Z,100816.84
2022-11-05T11:46:47.562Z,100820.00
2022-11-05T11:50:52.113Z,100817.06
2022-11-05T11:55:07.941Z,100820.88
2022-11-05T11:59:18.248Z,100831.84
2022-11-05T12:03:25.540Z,100810.34
2022-11-05T12:07:39.449Z,100808.81
2022-11-05T12:11:45.048Z,100802.50
2022-11-05T12:15:50.901Z,100802.22
2022-11-05T12:20:04.752Z,100798.00
2022-11-05T12:24:39.142Z,100791.31
2022-11-05T12:29:16.719Z,100791.88
2022-11-05T12:33:20.579Z,100784.56
2022-11-05T12:37:30.806Z,100773.56
2022-11-05T12:41:39.846Z,100777.44
2022-11-05T12:45:46.392Z,100765.38
2022-11-05T12:49:59.765Z,100761.91
2022-11-05T12:54:08.812Z,100751.00
2022-11-05T12:58:16.503Z,100756.09
2022-11-05T13:02:23.981Z,100753.19
2022-11-05T13:06:31.533Z,100759.53
2022-11-05T13:10:36.727Z,100753.63
2022-11-05T13:14:43.703Z,100742.97
2022-11-05T13:18:49.595Z,100730.25
2022-11-05T13:22:56.455Z,100722.16
2022-11-05T13:27:02.257Z,100721.84
2022-11-05T13:31:11.228Z,100729.69
2022-11-05T13:35:19.206Z,100717.50
2022-11-05T13:39:25.012Z,100709.69
2022-11-05T13:43:39.348Z,100707.00
2022-11-05T13:47:51.336Z,100703.47
2022-11-05T13:51:55.917Z,100704.59
2022-11-05T13:56:03.772Z,100705.16
2022-11-05T14:00:12.700Z,100705.03
2022-11-05T14:04:23.509Z,100696.59
2022-11-05T14:08:28.529Z,100682.09
2022-11-05T14:12:33.667Z,100693.06
2022-11-05T14:16:48.809Z,100690.38
2022-11-05T14:21:00.810Z,100684.13
2022-11-05T14:25:25.279Z,100676.09
2022-11-05T14:29:38.493Z,100678.44
2022-11-05T14:33:41.673Z,100680.13
2022-11-05T14:37:53.523Z,100672.09
2022-11-05T14:42:03.005Z,100671.72
2022-11-05T14:46:07.593Z,100676.56
2022-11-05T14:50:12.719Z,100675.56
2022-11-05T14:54:23.103Z,100677.88
2022-11-05T14:58:28.632Z,100680.63
2022-11-05T15:02:37.024Z,100695.81
2022-11-05T15:06:40.833Z,100699.78
2022-11-05T15:10:46.677Z,100701.88
2022-11-05T15:14:55.905Z,100690.75
2022-11-05T15:18:59.644Z,100688.22
2022-11-05T15:23:05.393Z,100694.81
2022-11-05T15:27:17.404Z,100697.75
2022-11-05T15:31:23.807Z,100698.00
2022-11-05T15:35:30.118Z,100695.69
2022-11-05T15:39:40.753Z,100703.28
2022-11-05T15:43:48.210Z,100713.44
2022-11-05T15:47:51.473Z,100721.00
2022-11-05T15:51:55.065Z,100715.09
2022-11-05T15:56:02.621Z,100710.03
2022-11-05T16:00:16.864Z,100719.72
2022-11-05T16:04:22.792Z,100717.19
2022-11-05T16:08:28.550Z,100723.72
2022-11-05T16:12:35.234Z,100714.47
2022-11-05T16:16:41.462Z,100709.63
2022-11-05T16:21:00.859Z,100727.47
2022-11-05T16:25:28.579Z,100732.53
2022-11-05T16:29:36.739Z,100740.34
2022-11-05T16:33:45.203Z,100739.69
2022-11-05T16:37:52.057Z,100743.25
2022-11-05T16:41:55.969Z,100743.91
2022-11-05T16:46:02.122Z,100752.56
2022-11-05T16:50:17.152Z,100748.75
2022-11-05T16:54:20.982Z,100749.59
2022-11-05T16:58:26.743Z,100744.31
2022-11-05T17:02:30.406Z,100736.94
2022-11-05T17:06:36.516Z,100741.13
2022-11-05T17:10:40.230Z,100733.97
2022-11-05T17:14:44.409Z,100734.78
2022-11-05T17:18:47.924Z,100738.81
2022-11-05T17:22:52.950Z,100736.94
2022-11-05T17:26:57.574Z,100740.72
2022-11-05T17:31:01.654Z,100738.19
2022-11-05T17:35:06.085Z,100740.72
2022-11-05T17:39:12.893Z,100746.19
2022-11-05T17:43:16.576Z,100739.44
2022-11-05T17:47:20.148Z,100747.88
2022-11-05T17:51:23.759Z,100738.22
2022-11-05T17:55:28.553Z,100734.88
2022-11-05T17:59:32.570Z,100746.63
2022-11-05T18:03:36.524Z,100753.75
2022-11-05T18:07:40.104Z,100768.06
2022-11-05T18:11:46.377Z,100744.91
2022-11-05T18:15:53.216Z,100756.69
2022-11-05T18:19:56.972Z,100757.72
2022-11-05T18:24:03.733Z,100754.16
2022-11-05T18:28:09.135Z,100755.44
2022-11-05T18:32:12.923Z,100762.13
2022-11-05T18:36:18.991Z,100755.84
2022-11-05T18:40:22.732Z,100748.66
2022-11-05T18:44:27.775Z,100749.69
2022-11-05T18:48:31.308Z,100752.00
2022-11-05T18:52:35.621Z,100754.94
2022-11-05T18:56:44.755Z,100770.50
2022-11-05T19:00:49.772Z,100749.28
2022-11-05T19:05:22.490Z,100749.03
2022-11-05T19:09:17.165Z,100737.06
2022-11-05T19:13:20.665Z,100749.03
2022-11-05T19:17:25.709Z,100738.94
2022-11-05T19:21:30.076Z,100749.88
2022-11-05T19:25:33.720Z,100742.25
2022-11-05T19:29:37.279Z,100749.03
2022-11-05T19:33:42.726Z,100735.28
2022-11-05T19:37:46.593Z,100729.00
2022-11-05T19:41:50.218Z,100741.38
2022-11-05T19:45:53.724Z,100740.75
2022-11-05T19:49:58.761Z,100748.94
2022-11-05T19:54:03.358Z,100732.31
2022-11-05T19:58:06.989Z,100737.31
2022-11-05T20:02:15.972Z,100745.53
2022-11-05T20:06:25.829Z,100741.31
2022-11-05T20:10:29.511Z,100737.56
2022-11-05T20:14:33.475Z,100736.25
2022-11-05T20:18:37.307Z,100734.97
2022-11-05T20:22:42.353Z,100734.97
2022-11-05T20:26:46.096Z,100727.44
2022-11-05T20:30:50.038Z,100731.84
2022-11-05T20:34:53.864Z,100732.09
2022-11-05T20:38:59.950Z,100739.63
2022-11-05T20:43:03.510Z,100743.81
2022-11-05T20:47:07.075Z,100746.13
2022-11-05T20:51:13.443Z,100733.91
2022-11-05T20:55:18.481Z,100739.16
2022-11-05T20:59:22.081Z,100744.56
2022-11-05T21:03:27.273Z,100746.22
2022-11-05T21:07:30.656Z,100743.03
2022-11-05T21:11:57.300Z,100748.50
2022-11-05T21:16:01.992Z,100725.13
2022-11-05T21:20:06.815Z,100711.88
2022-11-05T21:24:10.510Z,100702.44
2022-11-05T21:28:16.743Z,100720.53
2022-11-05T21:32:20.616Z,100714.81
2022-11-05T21:36:24.193Z,100734.81
2022-11-05T21:40:27.822Z,100725.53
2022-11-05T21:44:32.800Z,100718.78
2022-11-05T21:48:37.423Z,100722.56
2022-11-05T21:53:12.930Z,100714.63
2022-11-05T21:57:36.170Z,100698.63
2022-11-05T22:01:41.119Z,100703.09
2022-11-05T22:05:45.003Z,100695.69
2022-11-05T22:09:48.465Z,100697.81
2022-11-05T22:13:53.443Z,100686.06
2022-11-05T22:17:58.360Z,100670.72
2022-11-05T22:22:02.101Z,100663.16
2022-11-05T22:26:05.595Z,100660.03
2022-11-05T22:30:09.665Z,100667.00
2022-11-05T22:34:14.372Z,100668.06
2022-11-05T22:38:17.740Z,100664.44
2022-11-05T22:42:21.107Z,100661.34
2022-11-05T22:46:26.452Z,100654.59
2022-11-05T22:50:31.189Z,100665.53
2022-11-05T22:54:39.038Z,100653.34
2022-11-05T22:58:43.305Z,100656.47
2022-11-05T23:02:46.745Z,100648.28
2022-11-05T23:07:09.282Z,100641.72
2022-11-05T23:11:34.301Z,100645.50
2022-11-05T23:15:55.312Z,100656.84
2022-11-05T23:20:24.911Z,100653.84
2022-11-05T23:24:29.633Z,100643.69
2022-11-05T23:28:33.016Z,100645.94
2022-11-05T23:32:36.797Z,100644.66
2022-11-05T23:36:57.695Z,100639.56
2022-11-05T23:41:21.409Z,100640.28
2022-11-05T23:45:42.206Z,100627.44
2022-11-05T23:49:45.584Z,100629.03
2022-11-05T23:53:48.881Z,100634.88
2022-11-05T23:57:54.306Z,100645.97
